Kezdőlap
METAR-TAF:

METAR-TAF

Repülőterek :

Beatrice Municipal Airport

Beatrice, Nebraska, Amerikai Egyesült Államok

földrajzi szélesség: 40-18N, földrajzi hosszúság: 096-45W, magasság: 403 m

Jelenlegi meteorológiai megfigyelések

A jelentés 30 perccel ezelõtt készült, 14:35 UTC
Kelet-északkeleti szél 6 kt
Hőmérséklet -7°C
Páratartalom 93%
Légköri nyomás 1016 hPa
Látótávolság: 2.4 km
Szórványos felhőzet 900 lábon
Borult 3000 lábon
enyhe havazás

METAR: KBIE 151435Z AUTO 06006KT 1 1/2SM -SN SCT009 OVC030 M07/M08 A3001 RMK AO2 T10681085

Idő: 09:05 (15:05 UTC)


TAF: hiányzik

Meteorológiai megfigyelések és előrejelzések több, mint 4000 repülőtéren (METAR és TAF jelentéseket).

A térképen piros és sárga pontok jelzik az elérhető meteorológiai állomásokat.

Mozgassa az egeret a pont fölött, hogy megjelenjen az állomás neve.

Azután kattintson az időjárási megfigyelések és előrejelzések megtekintéséhez.

A térkép megváltoztatása: kattintson a fekete keresztel jelölt zöld gombra ráközelítéshez, a vonallal jelölt zöld gombra távolításhoz, vagy a zöld nyilakra a szomszédos térképek eléréséhez.


METAR-TAF: